This is the latest recevied weather packets stored in our database for station/object KI5MKI. If no packets are shown the sender has not sent any weather packets the latest 10 day(s).
| Time | Temp. | Humidity | Pressure | Rain* | Wind** | Luminosity | Snow |
|---|---|---|---|---|---|---|---|
| 1777659255 | 17.78° C | 59% | 1017 hPa | 0 mm | - | 567 W/m² | - |
| 1777658952 | 17.78° C | 58% | 1017.3 hPa | 0 mm | - | 352 W/m² | - |
| 1777656527 | 17.22° C | 67% | 1017.6 hPa | 0 mm | - | 845 W/m² | - |
| 1777655918 | 17.22° C | 70% | 1017.8 hPa | 0 mm | - | 592 W/m² | - |
| 1777655615 | 16.67° C | 71% | 1018 hPa | 0 mm | - | 845 W/m² | - |
| 1777655311 | 16.11° C | 72% | 1018.2 hPa | 0 mm | - | 498 W/m² | - |
| 1777655008 | 16.11° C | 74% | 1018.2 hPa | 0 mm | - | 454 W/m² | - |
| 1777654706 | 15.56° C | 73% | 1018.3 hPa | 0 mm | - | 396 W/m² | - |
| 1777654404 | 15° C | 75% | 1018.2 hPa | 0 mm | - | 398 W/m² | - |
| 1777653799 | 15° C | 75% | 1017.9 hPa | 0 mm | - | 199 W/m² | - |
| 1777653494 | 15° C | 74% | 1018.5 hPa | 0 mm | - | 182 W/m² | - |
| 1777653191 | 15° C | 76% | 1018.4 hPa | 0 mm | - | 340 W/m² | - |
| 1777652888 | 15° C | 76% | 1018.1 hPa | 0 mm | - | 267 W/m² | - |
| 1777652585 | 14.44° C | 78% | 1018 hPa | 0 mm | - | 264 W/m² | - |
| 1777652281 | 14.44° C | 77% | 1018.1 hPa | 0 mm | - | 221 W/m² | - |
| 1777651979 | 14.44° C | 79% | 1018.3 hPa | 0 mm | - | 199 W/m² | - |
| 1777651674 | 13.89° C | 80% | 1018.4 hPa | 0 mm | - | 151 W/m² | - |
| 1777651372 | 13.89° C | 80% | 1018 hPa | 0 mm | - | 154 W/m² | - |
| 1777651069 | 13.89° C | 80% | 1018.2 hPa | 0 mm | - | 98 W/m² | - |
| 1777650766 | 13.89° C | 80% | 1018.3 hPa | 0 mm | - | 95 W/m² | - |
| 1777650160 | 13.89° C | 80% | 1018.5 hPa | 0 mm | - | 84 W/m² | - |
| 1777649857 | 13.89° C | 80% | 1018.7 hPa | 0 mm | - | 95 W/m² | - |
| 1777649555 | 13.89° C | 79% | 1018.3 hPa | 0 mm | - | 96 W/m² | - |
| 1777649251 | 13.89° C | 79% | 1018.4 hPa | 0 mm | - | 101 W/m² | - |
| 1777648948 | 13.89° C | 79% | 1018.3 hPa | 0 mm | - | 107 W/m² | - |
* Rain latest hour (hover to see other rain measurements)
** Current wind speed in m/s (hover to see current wind gust speed)